Time;durP1;ratioP1;P1;durP2;ratioP2;P2;SDS_P1;SDS_P2;PMS_P1;PMS_P2;Temp;Humidity;BMP_temperature;BMP_pressure;BME280_temperature;BME280_humidity;BME280_pressure;Samples;Min_cycle;Max_cycle;Signal;HPM_P1;HPM_P2
2021/11/08 00:02:16;;;;;;;6.72;2.50;;;17.60;72.10;;;;;;10386077;28;20041;-56
2021/11/08 00:07:17;;;;;;;5.25;2.70;;;17.50;72.00;;;;;;10372054;28;20041;-57
2021/11/08 00:12:22;;;;;;;5.30;2.30;;;17.60;71.80;;;;;;10364069;28;20046;-56
2021/11/08 00:22:26;;;;;;;5.68;2.75;;;17.60;71.50;;;;;;10344595;28;20042;-56
2021/11/08 00:27:27;;;;;;;5.68;1.95;;;17.60;71.40;;;;;;10347576;28;20030;-57
2021/11/08 00:32:28;;;;;;;5.47;2.28;;;17.60;71.40;;;;;;10355748;28;20026;-56
2021/11/08 00:37:29;;;;;;;5.95;2.25;;;17.60;71.50;;;;;;10379127;28;20116;-56
2021/11/08 00:42:30;;;;;;;5.93;2.50;;;17.60;71.30;;;;;;10367443;28;20045;-56
2021/11/08 00:47:31;;;;;;;6.15;2.38;;;17.60;70.90;;;;;;10383197;28;20034;-56
2021/11/08 00:52:32;;;;;;;4.50;2.10;;;17.70;70.80;;;;;;10384770;28;20030;-57
2021/11/08 00:57:34;;;;;;;6.95;1.98;;;17.60;70.70;;;;;;10384543;28;20049;-57
2021/11/08 01:02:35;;;;;;;5.88;1.63;;;17.60;70.70;;;;;;10381915;28;20113;-55
2021/11/08 01:07:36;;;;;;;5.30;2.10;;;17.60;70.70;;;;;;10377929;28;20038;-56
2021/11/08 01:12:37;;;;;;;4.97;1.85;;;17.60;70.60;;;;;;10354710;28;20030;-56
2021/11/08 01:17:38;;;;;;;5.75;1.90;;;17.70;70.60;;;;;;10342543;28;20034;-56
2021/11/08 01:22:40;;;;;;;6.63;2.17;;;17.60;70.50;;;;;;10336937;28;20038;-56
2021/11/08 01:27:47;;;;;;;6.60;2.15;;;17.60;70.50;;;;;;10337214;28;20088;-56
2021/11/08 01:32:56;;;;;;;3.33;2.08;;;17.60;70.30;;;;;;10336695;28;20034;-56
2021/11/08 01:38:44;;;;;;;5.73;2.00;;;17.60;70.30;;;;;;10346116;28;20034;-56
2021/11/08 01:43:23;;;;;;;5.03;1.73;;;17.60;70.30;;;;;;10358169;28;20289;-56
2021/11/08 01:48:24;;;;;;;4.88;1.73;;;17.60;70.20;;;;;;10376560;28;20068;-57
2021/11/08 01:53:25;;;;;;;7.22;2.20;;;17.60;70.00;;;;;;10375877;28;20109;-56
2021/11/08 01:58:28;;;;;;;3.75;1.88;;;17.70;69.80;;;;;;10343635;28;20042;-56
2021/11/08 02:03:30;;;;;;;5.53;2.03;;;17.70;69.60;;;;;;10337638;28;20062;-56
2021/11/08 02:08:31;;;;;;;3.85;1.75;;;17.70;69.70;;;;;;10339914;28;20038;-57
2021/11/08 02:13:32;;;;;;;4.30;1.63;;;17.60;69.70;;;;;;10364641;28;20417;-56
2021/11/08 02:18:34;;;;;;;3.42;1.35;;;17.60;69.70;;;;;;10375637;28;20034;-56
2021/11/08 02:23:38;;;;;;;3.58;1.40;;;17.60;69.40;;;;;;10375001;28;20026;-56
2021/11/08 02:28:39;;;;;;;5.28;2.03;;;17.70;69.20;;;;;;10375070;28;20131;-57
2021/11/08 02:33:41;;;;;;;4.70;1.75;;;17.70;68.90;;;;;;10374674;28;20052;-56
2021/11/08 02:38:47;;;;;;;3.60;1.48;;;17.70;68.90;;;;;;10374548;28;20030;-55
2021/11/08 02:43:48;;;;;;;4.78;1.50;;;17.70;68.90;;;;;;10374181;28;20075;-55
2021/11/08 02:48:51;;;;;;;3.15;1.48;;;17.70;69.40;;;;;;10374430;28;20479;-56
2021/11/08 02:54:03;;;;;;;4.85;1.65;;;17.70;68.70;;;;;;10373886;28;20022;-57
2021/11/08 02:59:04;;;;;;;4.88;1.40;;;17.60;68.60;;;;;;10374240;28;20112;-56
2021/11/08 03:04:12;;;;;;;3.60;1.52;;;17.60;68.60;;;;;;10373734;28;20034;-57
2021/11/08 03:09:18;;;;;;;3.60;1.38;;;17.60;68.40;;;;;;10358528;28;20089;-57
2021/11/08 03:14:23;;;;;;;3.03;1.30;;;17.70;68.40;;;;;;10345252;28;20378;-56
2021/11/08 03:19:26;;;;;;;4.63;1.85;;;17.70;68.20;;;;;;10332820;28;20050;-56
2021/11/08 03:24:44;;;;;;;3.88;1.40;;;17.70;68.10;;;;;;10336596;28;20062;-57
2021/11/08 03:29:46;;;;;;;3.00;1.30;;;17.70;68.10;;;;;;10340750;28;20025;-56
2021/11/08 03:34:53;;;;;;;2.72;1.42;;;17.60;68.10;;;;;;10348124;28;20033;-56
2021/11/08 03:39:54;;;;;;;3.80;1.33;;;17.60;68.00;;;;;;10359165;28;20026;-54
2021/11/08 03:44:55;;;;;;;2.83;1.40;;;17.70;67.90;;;;;;10331150;28;20443;-56
2021/11/08 03:49:57;;;;;;;4.25;1.92;;;17.70;67.70;;;;;;10331775;28;20045;-56
2021/11/08 03:54:58;;;;;;;7.05;1.77;;;17.70;67.60;;;;;;10349613;28;20026;-56
2021/11/08 03:59:58;;;;;;;4.25;1.52;;;17.70;67.70;;;;;;10371090;28;20092;-55
2021/11/08 04:05:01;;;;;;;3.75;1.63;;;17.70;67.60;;;;;;10372024;28;20041;-57
2021/11/08 04:10:05;;;;;;;2.58;1.15;;;17.70;67.60;;;;;;10369973;28;20038;-56
2021/11/08 04:15:10;;;;;;;3.03;1.20;;;17.70;67.60;;;;;;10338512;28;20109;-56
2021/11/08 04:20:18;;;;;;;3.10;1.08;;;17.70;67.50;;;;;;10331310;28;20061;-56
2021/11/08 04:25:22;;;;;;;7.18;1.52;;;17.70;67.40;;;;;;10349270;28;20061;-56
2021/11/08 04:30:26;;;;;;;4.07;1.27;;;17.70;67.40;;;;;;10371620;28;20029;-57
2021/11/08 04:41:28;;;;;;;4.85;1.73;;;17.70;67.40;;;;;;10342204;28;20037;-56
2021/11/08 05:33:14;;;;;;;7.82;2.22;;;17.70;66.90;;;;;;10364975;28;20045;-56
2021/11/08 05:38:15;;;;;;;2.72;1.00;;;17.70;66.90;;;;;;10345439;28;20120;-56
2021/11/08 05:43:16;;;;;;;4.20;1.23;;;17.80;66.60;;;;;;10339102;28;20124;-57
2021/11/08 05:48:17;;;;;;;4.07;1.52;;;18.00;65.80;;;;;;10342314;28;20117;-59
2021/11/08 05:53:18;;;;;;;4.50;1.30;;;18.20;65.40;;;;;;10344753;28;20112;-56
2021/11/08 05:59:09;;;;;;;3.67;1.20;;;18.30;65.00;;;;;;10372200;28;20026;-58
2021/11/08 06:51:36;;;;;;;7.33;2.17;;;18.70;66.40;;;;;;10366355;28;20026;-58
2021/11/08 06:56:43;;;;;;;7.82;2.03;;;18.60;66.50;;;;;;10352824;28;20506;-58
2021/11/08 07:01:48;;;;;;;9.88;1.80;;;18.60;66.60;;;;;;10366947;28;20057;-58
2021/11/08 07:06:49;;;;;;;7.50;1.80;;;18.60;66.90;;;;;;10373167;28;20033;-55
2021/11/08 07:11:50;;;;;;;5.72;1.50;;;18.60;66.80;;;;;;10356386;28;20045;-59
2021/11/08 07:16:52;;;;;;;10.57;1.92;;;18.60;67.00;;;;;;10371146;28;20045;-58
2021/11/08 07:21:54;;;;;;;13.48;2.35;;;18.60;66.90;;;;;;10370742;28;20032;-59
2021/11/08 07:26:55;;;;;;;10.20;1.80;;;18.60;66.90;;;;;;10372825;28;20034;-58
2021/11/08 07:31:57;;;;;;;9.38;2.03;;;18.50;67.00;;;;;;10368177;28;20030;-58
2021/11/08 07:36:59;;;;;;;19.67;2.70;;;18.60;66.90;;;;;;10367217;28;20096;-58
2021/11/08 07:41:59;;;;;;;7.13;1.63;;;18.50;66.90;;;;;;10353562;28;20049;-57
2021/11/08 07:47:00;;;;;;;6.60;1.75;;;18.40;67.10;;;;;;10330911;28;20085;-57
2021/11/08 07:52:02;;;;;;;8.43;2.15;;;18.60;67.00;;;;;;10347286;28;20034;-58
2021/11/08 07:57:04;;;;;;;13.85;2.10;;;18.60;66.70;;;;;;10364219;28;20026;-57
2021/11/08 08:02:05;;;;;;;10.35;2.25;;;18.60;66.80;;;;;;10344918;28;20040;-58
2021/11/08 08:07:05;;;;;;;11.20;2.33;;;18.70;66.90;;;;;;10360159;28;20026;-58
2021/11/08 08:12:07;;;;;;;10.70;2.42;;;18.60;67.10;;;;;;10353213;28;20104;-57
2021/11/08 08:17:08;;;;;;;12.10;2.60;;;18.60;67.40;;;;;;10338668;28;20045;-58
2021/11/08 08:22:09;;;;;;;14.20;2.88;;;18.60;67.50;;;;;;10368949;28;20033;-57
2021/11/08 08:27:10;;;;;;;8.77;2.33;;;18.60;67.40;;;;;;10371667;28;20116;-58
2021/11/08 08:32:10;;;;;;;15.05;2.85;;;18.60;67.70;;;;;;10376373;28;20053;-58
2021/11/08 08:37:11;;;;;;;15.07;2.55;;;18.50;68.10;;;;;;10377041;28;20164;-57
2021/11/08 08:42:12;;;;;;;14.43;2.70;;;18.50;68.20;;;;;;10373778;28;20033;-58
2021/11/08 08:47:14;;;;;;;15.65;2.65;;;18.40;68.30;;;;;;10377760;28;20046;-58
2021/11/08 08:52:15;;;;;;;16.38;3.70;;;18.50;68.20;;;;;;10378256;28;20034;-57
2021/11/08 08:57:16;;;;;;;14.82;3.13;;;18.60;68.30;;;;;;10377704;28;20042;-58
2021/11/08 09:02:17;;;;;;;13.90;3.08;;;18.60;68.20;;;;;;10377592;28;20034;-58
2021/11/08 09:07:17;;;;;;;11.52;2.38;;;18.70;68.30;;;;;;10377491;28;20073;-58
2021/11/08 09:12:18;;;;;;;11.45;2.58;;;18.60;68.40;;;;;;10357555;28;20120;-57
2021/11/08 09:17:19;;;;;;;9.48;2.50;;;18.50;68.60;;;;;;10375393;28;20056;-58
2021/11/08 09:22:19;;;;;;;7.18;2.08;;;18.40;68.80;;;;;;10376354;28;20101;-57
2021/11/08 09:27:20;;;;;;;15.38;2.00;;;18.50;69.10;;;;;;10375444;28;20070;-57
2021/11/08 09:32:21;;;;;;;15.45;2.75;;;18.40;69.80;;;;;;10376035;28;20398;-58
2021/11/08 09:37:23;;;;;;;15.13;2.67;;;18.40;70.50;;;;;;10376871;28;20037;-58
2021/11/08 09:42:28;;;;;;;12.20;2.40;;;18.30;70.80;;;;;;10376487;28;20023;-58
2021/11/08 09:47:30;;;;;;;12.48;2.50;;;18.30;70.70;;;;;;10340354;28;20147;-58
2021/11/08 09:52:35;;;;;;;8.75;2.30;;;18.30;70.80;;;;;;10334566;28;20058;-58
2021/11/08 09:57:36;;;;;;;11.60;1.98;;;18.30;70.80;;;;;;10360538;28;20030;-57
2021/11/08 10:02:37;;;;;;;16.05;2.42;;;18.30;71.10;;;;;;10335651;28;20498;-58
2021/11/08 10:07:38;;;;;;;9.57;2.70;;;18.30;71.00;;;;;;10335393;28;20126;-58
2021/11/08 10:12:38;;;;;;;13.35;1.88;;;18.30;70.50;;;;;;10358083;28;20506;-57
2021/11/08 10:17:40;;;;;;;12.43;3.00;;;18.30;70.40;;;;;;10374313;28;20117;-57
2021/11/08 10:22:41;;;;;;;16.90;3.00;;;18.30;70.50;;;;;;10374220;28;20084;-58
2021/11/08 10:27:46;;;;;;;10.10;2.28;;;18.30;70.40;;;;;;10375010;28;20058;-58
2021/11/08 10:33:05;;;;;;;10.73;2.28;;;18.30;70.40;;;;;;10375040;28;20377;-58
2021/11/08 10:38:14;;;;;;;9.95;2.05;;;18.20;71.20;;;;;;10335134;28;20743;-58
2021/11/08 10:43:52;;;;;;;16.58;2.78;;;18.10;71.60;;;;;;10356425;28;20118;-55
2021/11/08 10:49:06;;;;;;;7.97;2.45;;;18.00;71.90;;;;;;10373418;28;20494;-58
2021/11/08 10:54:19;;;;;;;20.48;3.47;;;18.00;72.50;;;;;;10371798;28;20026;-57
2021/11/08 10:59:22;;;;;;;8.60;2.63;;;18.00;72.70;;;;;;10373894;28;20049;-57
2021/11/08 11:04:37;;;;;;;14.38;2.45;;;18.00;72.40;;;;;;10373975;28;20026;-57
2021/11/08 11:09:38;;;;;;;14.40;2.75;;;17.90;72.40;;;;;;10342340;28;20455;-57
2021/11/08 11:14:49;;;;;;;16.70;2.33;;;18.00;71.70;;;;;;10353280;28;20561;-58
2021/11/08 11:20:01;;;;;;;6.40;2.08;;;17.90;71.60;;;;;;10332715;28;20045;-57
2021/11/08 11:25:07;;;;;;;17.02;3.03;;;18.00;71.50;;;;;;10332599;28;20081;-57
2021/11/08 11:30:18;;;;;;;15.82;2.60;;;18.00;71.90;;;;;;10332269;28;20027;-57
2021/11/08 11:35:23;;;;;;;21.08;3.00;;;18.10;72.50;;;;;;10335651;28;20026;-57
2021/11/08 11:40:24;;;;;;;17.42;2.55;;;18.10;72.60;;;;;;10341401;28;20486;-55
2021/11/08 11:45:27;;;;;;;15.20;2.45;;;18.10;72.60;;;;;;10333100;28;20053;-56
2021/11/08 11:50:34;;;;;;;12.30;2.13;;;18.20;72.60;;;;;;10370360;28;20065;-57
2021/11/08 11:55:38;;;;;;;14.35;2.33;;;18.20;72.50;;;;;;10371165;28;20378;-56
2021/11/08 12:00:41;;;;;;;17.40;2.88;;;18.20;72.50;;;;;;10346759;28;20061;-56
2021/11/08 12:05:45;;;;;;;12.77;2.28;;;18.20;72.40;;;;;;10330919;28;20391;-57
2021/11/08 12:10:50;;;;;;;7.55;2.22;;;18.10;72.30;;;;;;10338798;28;20117;-56
2021/11/08 12:15:51;;;;;;;7.30;2.35;;;18.00;72.50;;;;;;10341584;28;20037;-57
2021/11/08 12:20:55;;;;;;;9.23;2.10;;;18.00;73.30;;;;;;10330740;28;20548;-53
2021/11/08 12:25:58;;;;;;;8.93;1.60;;;18.00;73.00;;;;;;10338403;28;20065;-56
2021/11/08 12:31:06;;;;;;;10.85;2.00;;;17.90;73.00;;;;;;10368063;28;20022;-56
2021/11/08 12:36:10;;;;;;;9.18;2.00;;;17.80;73.20;;;;;;10360680;28;20117;-55
2021/11/08 12:41:20;;;;;;;15.55;2.33;;;17.80;73.40;;;;;;10370757;28;20034;-57
2021/11/08 12:46:31;;;;;;;7.32;2.20;;;17.80;73.30;;;;;;10360321;28;20038;-56
2021/11/08 12:51:32;;;;;;;6.13;1.80;;;17.70;73.20;;;;;;10370907;28;20037;-57
2021/11/08 12:56:41;;;;;;;5.63;1.83;;;17.70;73.10;;;;;;10370616;28;20062;-57
2021/11/08 13:01:53;;;;;;;15.37;2.47;;;17.60;73.10;;;;;;10376960;28;20462;-57
2021/11/08 13:07:06;;;;;;;5.85;1.55;;;17.60;73.10;;;;;;10376277;28;20299;-57
2021/11/08 13:12:23;;;;;;;6.53;1.50;;;17.70;73.10;;;;;;10355701;28;20030;-57
2021/11/08 13:17:25;;;;;;;8.40;2.30;;;17.70;72.70;;;;;;10332519;28;20379;-57
2021/11/08 13:22:35;;;;;;;4.68;1.67;;;17.70;72.70;;;;;;10332743;28;20026;-55
2021/11/08 13:27:37;;;;;;;7.93;1.55;;;17.70;72.70;;;;;;10335986;28;20054;-56
2021/11/08 13:32:38;;;;;;;8.73;1.85;;;17.70;72.50;;;;;;10341067;28;20471;-55
2021/11/08 13:37:43;;;;;;;7.05;2.08;;;17.70;72.40;;;;;;10334409;28;20042;-57
2021/11/08 13:42:45;;;;;;;8.50;1.40;;;17.90;71.90;;;;;;10335118;28;20034;-55
2021/11/08 13:47:49;;;;;;;7.38;1.63;;;17.90;71.60;;;;;;10335525;28;20046;-57
2021/11/08 13:52:56;;;;;;;4.93;1.40;;;18.00;71.40;;;;;;10334199;28;20030;-56
2021/11/08 13:57:57;;;;;;;8.70;1.63;;;18.00;71.20;;;;;;10359953;28;20039;-57
2021/11/08 14:03:09;;;;;;;7.45;1.73;;;18.10;70.90;;;;;;10332601;28;20042;-56
2021/11/08 14:08:10;;;;;;;2.53;1.20;;;18.10;70.70;;;;;;10332615;28;20042;-57
2021/11/08 14:13:11;;;;;;;6.40;1.52;;;18.10;70.70;;;;;;10354600;28;20497;-57
2021/11/08 14:18:21;;;;;;;6.85;1.50;;;18.20;70.60;;;;;;10351854;28;20551;-57
2021/11/08 14:23:31;;;;;;;3.40;1.20;;;18.20;70.60;;;;;;10374452;28;20037;-58
2021/11/08 14:28:32;;;;;;;7.88;1.63;;;18.20;70.20;;;;;;10373484;28;20482;-57
2021/11/08 14:33:33;;;;;;;6.25;1.75;;;18.20;70.10;;;;;;10369224;28;20021;-58
2021/11/08 14:38:46;;;;;;;7.78;1.75;;;18.30;70.00;;;;;;10333445;28;20064;-58
2021/11/08 14:43:58;;;;;;;6.85;1.42;;;18.20;70.10;;;;;;10332263;28;20097;-58
2021/11/08 14:49:08;;;;;;;6.90;1.58;;;18.30;70.10;;;;;;10333708;28;20034;-57
2021/11/08 14:54:09;;;;;;;8.25;1.77;;;18.30;70.10;;;;;;10369236;28;20033;-58
2021/11/08 14:59:14;;;;;;;5.82;1.77;;;18.30;70.10;;;;;;10373038;28;20093;-58
2021/11/08 15:04:20;;;;;;;4.85;1.17;;;18.20;70.70;;;;;;10364374;28;20037;-57
2021/11/08 15:09:22;;;;;;;7.72;1.95;;;18.20;70.20;;;;;;10353305;28;20080;-58
2021/11/08 15:14:22;;;;;;;8.48;1.67;;;18.10;70.30;;;;;;10356035;28;20030;-56
2021/11/08 15:19:26;;;;;;;4.90;0.82;;;18.10;70.40;;;;;;10352120;28;20105;-55
2021/11/08 15:24:30;;;;;;;5.70;1.50;;;18.20;70.20;;;;;;10334428;28;20030;-57
2021/11/08 15:29:33;;;;;;;3.92;1.42;;;18.20;70.10;;;;;;10332118;28;20077;-58
2021/11/08 15:34:34;;;;;;;4.07;1.10;;;18.10;70.20;;;;;;10332508;28;20041;-58
2021/11/08 15:39:35;;;;;;;5.78;1.48;;;18.20;70.30;;;;;;10347504;28;20113;-57
2021/11/08 15:44:38;;;;;;;10.00;1.50;;;18.20;70.20;;;;;;10333441;28;20137;-57
2021/11/08 15:49:38;;;;;;;7.32;1.45;;;18.30;69.80;;;;;;10339944;28;20514;-57
2021/11/08 15:54:39;;;;;;;4.95;1.55;;;18.30;69.70;;;;;;10368497;28;20093;-57
2021/11/08 15:59:41;;;;;;;4.95;1.40;;;18.40;69.60;;;;;;10370974;28;20414;-58
2021/11/08 16:04:42;;;;;;;5.53;1.25;;;18.30;69.50;;;;;;10358254;28;20045;-58
2021/11/08 16:09:42;;;;;;;3.05;1.10;;;18.30;69.60;;;;;;10330086;28;20053;-57
2021/11/08 16:14:43;;;;;;;5.40;1.73;;;18.20;69.80;;;;;;10348355;28;20062;-59
2021/11/08 16:19:44;;;;;;;4.70;1.13;;;18.20;69.80;;;;;;10331486;28;20066;-58
2021/11/08 16:24:45;;;;;;;3.78;1.30;;;18.30;69.60;;;;;;10329756;28;20054;-56
2021/11/08 16:29:46;;;;;;;4.25;1.38;;;18.30;69.60;;;;;;10364371;28;20439;-57
2021/11/08 16:34:47;;;;;;;5.70;1.63;;;18.30;69.70;;;;;;10362735;28;20026;-56
2021/11/08 16:39:48;;;;;;;8.43;2.10;;;18.30;69.90;;;;;;10374821;28;20033;-58
2021/11/08 16:44:49;;;;;;;5.35;1.90;;;18.40;69.80;;;;;;10367133;28;20125;-57
2021/11/08 16:49:49;;;;;;;7.30;1.80;;;18.30;69.90;;;;;;10359220;28;20482;-58
2021/11/08 16:54:52;;;;;;;7.57;1.92;;;18.30;69.60;;;;;;10358756;28;20072;-56
2021/11/08 16:59:56;;;;;;;7.20;2.38;;;18.40;69.30;;;;;;10377136;28;20026;-56
2021/11/08 17:04:58;;;;;;;8.13;2.40;;;18.50;68.70;;;;;;10373048;28;20037;-58
2021/11/08 17:15:18;;;;;;;9.05;2.65;;;18.90;69.90;;;;;;10350972;28;20117;-56
2021/11/08 17:20:19;;;;;;;16.88;3.97;;;19.00;70.50;;;;;;10366433;28;20033;-57
2021/11/08 17:25:21;;;;;;;11.00;2.60;;;19.20;69.40;;;;;;10383993;28;20022;-56
2021/11/08 17:30:23;;;;;;;6.90;1.90;;;19.10;69.70;;;;;;10357527;28;20034;-57
2021/11/08 17:35:27;;;;;;;6.97;2.70;;;19.00;69.70;;;;;;10345016;28;20026;-58
2021/11/08 17:40:28;;;;;;;10.57;2.35;;;19.00;70.20;;;;;;10355263;28;20388;-57
2021/11/08 17:45:30;;;;;;;8.55;2.47;;;18.80;70.70;;;;;;10362012;28;20041;-58
2021/11/08 17:50:30;;;;;;;11.60;3.38;;;18.60;70.80;;;;;;10366376;28;20467;-58
2021/11/08 17:55:32;;;;;;;13.63;2.75;;;18.50;71.10;;;;;;10374823;28;20113;-57
2021/11/08 18:00:34;;;;;;;10.50;2.30;;;18.40;71.70;;;;;;10371285;28;20409;-57
2021/11/08 18:05:35;;;;;;;12.30;3.15;;;18.40;71.50;;;;;;10369942;28;20038;-57
2021/11/08 18:10:36;;;;;;;16.95;2.88;;;18.30;72.60;;;;;;10350717;28;20034;-57
2021/11/08 18:15:39;;;;;;;7.45;2.80;;;18.30;72.60;;;;;;10372716;28;20018;-58
2021/11/08 18:21:02;;;;;;;8.65;2.85;;;18.20;72.30;;;;;;10372752;28;20030;-58
2021/11/08 18:31:18;;;;;;;6.18;3.05;;;18.10;73.60;;;;;;10350056;28;20115;-58
2021/11/08 18:36:22;;;;;;;6.65;2.08;;;18.10;72.40;;;;;;10368928;28;20037;-56
2021/11/08 18:41:23;;;;;;;6.00;2.25;;;18.10;72.50;;;;;;10366169;28;20060;-57
2021/11/08 18:46:25;;;;;;;14.27;3.45;;;18.00;72.60;;;;;;10369898;28;20045;-57
2021/11/08 18:51:26;;;;;;;7.78;2.65;;;18.00;72.70;;;;;;10371774;28;20462;-56
2021/11/08 18:56:28;;;;;;;6.50;1.83;;;18.00;72.60;;;;;;10349433;28;20022;-58
2021/11/08 19:07:16;;;;;;;7.95;1.60;;;18.00;72.70;;;;;;10345317;28;20374;-55
2021/11/08 19:12:17;;;;;;;7.38;2.03;;;18.00;72.70;;;;;;10367532;28;20029;-51
2021/11/08 19:17:18;;;;;;;4.05;1.77;;;18.00;72.70;;;;;;10372395;28;20549;-48
2021/11/08 19:22:19;;;;;;;8.27;1.98;;;18.00;72.60;;;;;;10371373;28;20041;-52
2021/11/08 19:27:20;;;;;;;5.97;2.10;;;18.10;72.30;;;;;;10359620;28;20069;-50
2021/11/08 19:32:26;;;;;;;5.97;1.63;;;18.10;72.10;;;;;;10338475;28;20041;-53
2021/11/08 19:42:46;;;;;;;6.38;1.73;;;18.10;72.40;;;;;;10355716;28;20070;-50
2021/11/08 19:47:47;;;;;;;5.60;1.90;;;18.10;72.10;;;;;;10364421;28;20074;-50
2021/11/08 19:52:47;;;;;;;5.32;1.70;;;18.20;71.80;;;;;;10332337;28;20027;-51
2021/11/08 19:57:48;;;;;;;3.17;1.45;;;18.20;71.50;;;;;;10342508;28;20049;-50
2021/11/08 20:02:51;;;;;;;4.68;1.70;;;18.20;71.40;;;;;;10354723;28;20053;-52
2021/11/08 20:07:54;;;;;;;6.30;2.35;;;18.20;71.30;;;;;;10357579;28;20033;-50
2021/11/08 20:18:18;;;;;;;5.80;1.60;;;18.20;71.50;;;;;;10375162;28;20042;-51
2021/11/08 20:23:24;;;;;;;7.85;1.45;;;18.10;71.60;;;;;;10357687;28;20064;-52
2021/11/08 20:28:28;;;;;;;6.18;1.63;;;18.00;71.70;;;;;;10339468;28;20080;-51
2021/11/08 20:34:02;;;;;;;5.35;1.70;;;18.00;71.80;;;;;;10358870;28;20045;-48
2021/11/08 20:38:57;;;;;;;4.65;1.38;;;17.90;71.90;;;;;;10361872;28;20066;-50
2021/11/08 21:04:44;;;;;;;6.15;1.30;;;17.70;72.30;;;;;;10354074;28;20042;-50
2021/11/08 21:15:07;;;;;;;4.13;1.52;;;17.70;72.50;;;;;;10371219;28;20038;-49
2021/11/08 21:20:09;;;;;;;3.78;1.52;;;17.60;72.40;;;;;;10376432;28;20041;-50
2021/11/08 21:25:13;;;;;;;2.47;1.20;;;17.60;72.50;;;;;;10377305;28;20498;-49
2021/11/08 21:31:07;;;;;;;3.05;1.40;;;17.60;72.50;;;;;;10376213;28;20673;-49
2021/11/08 21:41:00;;;;;;;2.63;1.30;;;17.50;72.50;;;;;;10377199;28;20041;-47
2021/11/08 21:46:00;;;;;;;6.43;1.35;;;17.50;72.60;;;;;;10376678;28;20042;-50
2021/11/08 21:51:01;;;;;;;4.07;1.50;;;17.50;72.60;;;;;;10376633;28;20033;-48
2021/11/08 21:56:02;;;;;;;3.58;1.65;;;17.40;72.70;;;;;;10360076;28;20018;-49
2021/11/08 22:01:04;;;;;;;4.88;1.60;;;17.40;72.70;;;;;;10335864;28;20030;-49
2021/11/08 22:06:05;;;;;;;4.50;1.42;;;17.40;72.70;;;;;;10366025;28;20040;-48
2021/11/08 22:11:06;;;;;;;2.60;1.20;;;17.40;72.70;;;;;;10364675;28;20038;-47
2021/11/08 22:16:07;;;;;;;3.90;1.30;;;17.40;72.90;;;;;;10366710;28;20026;-48
2021/11/08 22:21:08;;;;;;;3.25;1.38;;;17.40;72.80;;;;;;10375720;28;20064;-48
2021/11/08 22:26:09;;;;;;;5.45;1.55;;;17.40;72.60;;;;;;10375020;28;20038;-50
2021/11/08 22:31:10;;;;;;;2.78;1.05;;;17.40;72.60;;;;;;10374564;28;20030;-50
2021/11/08 22:36:16;;;;;;;3.33;1.42;;;17.40;72.50;;;;;;10374554;28;20100;-49
2021/11/08 22:41:20;;;;;;;3.33;1.20;;;17.40;72.50;;;;;;10350806;28;20030;-50
2021/11/08 22:46:20;;;;;;;3.10;1.42;;;17.50;72.40;;;;;;10339418;28;20410;-49
2021/11/08 22:51:21;;;;;;;2.72;1.33;;;17.60;72.00;;;;;;10355876;28;20040;-49
2021/11/08 22:56:23;;;;;;;3.53;1.52;;;17.50;71.80;;;;;;10341486;28;20152;-48
2021/11/08 23:01:25;;;;;;;3.35;1.35;;;17.60;71.80;;;;;;10362366;28;20100;-50
2021/11/08 23:06:26;;;;;;;3.83;1.40;;;17.50;71.90;;;;;;10372560;28;20033;-49
2021/11/08 23:11:27;;;;;;;2.00;0.98;;;17.60;71.80;;;;;;10359514;28;20034;-48
2021/11/08 23:16:29;;;;;;;3.20;1.70;;;17.50;71.60;;;;;;10334611;28;20057;-49
2021/11/08 23:21:31;;;;;;;3.67;1.65;;;17.60;71.60;;;;;;10335938;28;20030;-48
2021/11/08 23:26:32;;;;;;;3.95;1.30;;;17.60;71.50;;;;;;10332543;28;20054;-47
2021/11/08 23:31:34;;;;;;;2.40;1.33;;;17.70;71.30;;;;;;10334984;28;20391;-48
2021/11/08 23:36:34;;;;;;;3.03;1.40;;;17.60;71.30;;;;;;10340598;28;20389;-48
2021/11/08 23:41:35;;;;;;;2.05;1.27;;;17.60;71.40;;;;;;10372575;28;20038;-48
2021/11/08 23:46:36;;;;;;;3.35;1.65;;;17.50;71.40;;;;;;10371825;28;20042;-49
2021/11/08 23:51:37;;;;;;;4.53;1.40;;;17.50;71.50;;;;;;10371752;28;20036;-49
2021/11/08 23:56:37;;;;;;;3.45;1.40;;;17.50;71.50;;;;;;10372701;28;20109;-48
